Terminal Aerodrome Forecast
Issued by NWS

Home | Current Version | Previous Version | Text Only | Print | Product List | Glossary On
Versions: 1 2 3 4 5 6 7 8 9 10 11 12 13 14 15 16 17 18 19 20 21 22 23 24 25 26 27 28 29 30 31 32
000
FTUS41 KOKX 301736
TAFGON
TAF
KGON 301736Z 3018/0118 13012G21KT P6SM OVC050
     FM010000 12010KT P6SM OVC030
     FM010500 11010KT P6SM SCT010 OVC020
     FM010700 10006KT 5SM -DZ BR OVC006
     FM011000 VRB04KT 1SM -DZ BR OVC004
     FM011600 18006KT 3SM BR OVC007=

USA.gov is the U.S. government's official web portal to all federal, state and local government web resources and services.